createdAt,value
2018-09-25T00:00:45.716Z,5.80
2018-09-25T00:02:54.523Z,5.80
2018-09-25T00:05:04.861Z,5.70
2018-09-25T00:07:13.554Z,5.70
2018-09-25T00:09:22.347Z,5.70
2018-09-25T00:11:31.329Z,5.70
2018-09-25T00:13:40.021Z,5.70
2018-09-25T00:15:48.827Z,5.60
2018-09-25T00:17:58.065Z,5.60
2018-09-25T00:20:06.916Z,5.60
2018-09-25T00:22:15.677Z,5.60
2018-09-25T00:24:24.483Z,5.60
2018-09-25T00:26:34.755Z,5.60
2018-09-25T00:28:43.484Z,5.60
2018-09-25T00:30:52.249Z,5.50
2018-09-25T00:33:00.991Z,5.50
2018-09-25T00:35:09.671Z,5.60
2018-09-25T00:37:18.363Z,5.50
2018-09-25T00:39:27.203Z,5.50
2018-09-25T00:41:35.836Z,5.50
2018-09-25T00:43:44.643Z,5.50
2018-09-25T00:45:53.410Z,5.40
2018-09-25T00:48:02.274Z,5.40
2018-09-25T00:50:11.231Z,5.30
2018-09-25T00:52:19.944Z,5.30
2018-09-25T00:54:28.793Z,5.30
2018-09-25T00:56:37.472Z,5.20
2018-09-25T00:58:46.335Z,5.20
2018-09-25T01:00:54.984Z,5.20
2018-09-25T01:03:05.482Z,5.20
2018-09-25T01:05:14.215Z,5.20
2018-09-25T01:07:23.009Z,5.20
2018-09-25T01:09:31.751Z,5.20
2018-09-25T01:11:40.625Z,5.10
2018-09-25T01:13:49.489Z,5.10
2018-09-25T01:15:58.598Z,5.10
2018-09-25T01:18:07.558Z,5.10
2018-09-25T01:20:16.305Z,5.00
2018-09-25T01:22:25.280Z,5.00
2018-09-25T01:24:35.233Z,5.00
2018-09-25T01:26:44.043Z,5.00
2018-09-25T01:28:52.914Z,5.00
2018-09-25T01:31:01.739Z,4.90
2018-09-25T01:33:10.884Z,4.90
2018-09-25T01:35:19.741Z,4.90
2018-09-25T01:37:28.556Z,5.00
2018-09-25T01:39:37.344Z,4.90
2018-09-25T01:41:46.040Z,4.90
2018-09-25T01:43:54.827Z,4.90
2018-09-25T01:46:05.116Z,4.90
2018-09-25T01:48:13.896Z,4.90
2018-09-25T01:50:22.570Z,4.90
2018-09-25T01:52:31.456Z,4.90
2018-09-25T01:54:40.239Z,4.90
2018-09-25T01:56:49.129Z,4.90
2018-09-25T01:58:58.064Z,4.90
2018-09-25T02:01:06.820Z,4.90
2018-09-25T02:03:15.643Z,4.80
2018-09-25T02:05:24.488Z,4.80
2018-09-25T02:07:35.232Z,4.80
2018-09-25T02:09:44.088Z,4.70
2018-09-25T02:11:52.752Z,4.70
2018-09-25T02:14:01.549Z,4.70
2018-09-25T02:16:10.681Z,4.70
2018-09-25T02:18:19.502Z,4.70
2018-09-25T02:20:28.177Z,4.70
2018-09-25T02:22:36.914Z,4.60
2018-09-25T02:24:45.763Z,4.60
2018-09-25T02:26:54.568Z,4.60
2018-09-25T02:29:05.035Z,4.50
2018-09-25T02:31:13.999Z,4.50
2018-09-25T02:33:22.779Z,4.50
2018-09-25T02:35:31.520Z,4.50
2018-09-25T02:37:40.381Z,4.40
2018-09-25T02:39:49.229Z,4.40
2018-09-25T02:41:57.825Z,4.50
2018-09-25T02:44:07.094Z,4.50
2018-09-25T02:46:15.805Z,4.40
2018-09-25T02:48:24.660Z,4.50
2018-09-25T02:50:35.001Z,4.40
2018-09-25T02:52:43.836Z,4.40
2018-09-25T02:54:52.722Z,4.40
2018-09-25T02:57:01.485Z,4.30
2018-09-25T02:59:10.364Z,4.30
2018-09-25T03:01:19.316Z,4.30
2018-09-25T03:03:28.085Z,4.40
2018-09-25T03:05:36.979Z,4.30
2018-09-25T03:07:45.893Z,4.30
2018-09-25T03:09:54.870Z,4.30
2018-09-25T03:12:05.128Z,4.30
2018-09-25T03:14:13.957Z,4.40
2018-09-25T03:16:22.664Z,4.30
2018-09-25T03:18:31.513Z,4.30
2018-09-25T03:20:40.428Z,4.20
2018-09-25T03:22:49.160Z,4.20
2018-09-25T03:24:58.027Z,4.20
2018-09-25T03:27:06.850Z,4.20
2018-09-25T03:29:15.744Z,4.20
2018-09-25T03:31:24.618Z,4.20
2018-09-25T03:33:34.887Z,4.20
2018-09-25T03:35:43.739Z,4.20
2018-09-25T03:37:52.514Z,4.20
2018-09-25T03:40:01.340Z,4.10
2018-09-25T03:42:10.256Z,4.10
2018-09-25T03:44:19.092Z,4.20
2018-09-25T03:46:28.552Z,4.20
2018-09-25T03:48:37.447Z,4.20
2018-09-25T03:50:46.233Z,4.20
2018-09-25T03:52:55.064Z,4.20
2018-09-25T03:55:05.583Z,4.20
2018-09-25T03:57:14.347Z,4.10
2018-09-25T03:59:23.195Z,4.10
2018-09-25T04:01:32.049Z,4.10
2018-09-25T04:03:40.794Z,4.10
2018-09-25T04:05:49.836Z,4.10
2018-09-25T04:07:58.536Z,4.10
2018-09-25T04:10:07.329Z,4.10
2018-09-25T04:12:16.111Z,4.10
2018-09-25T04:14:24.799Z,4.20
2018-09-25T04:16:35.224Z,4.10
2018-09-25T04:18:44.105Z,4.10
2018-09-25T04:20:53.099Z,4.20
2018-09-25T04:23:01.944Z,4.20
2018-09-25T04:25:10.853Z,4.10
2018-09-25T04:27:19.749Z,4.10
2018-09-25T04:29:28.464Z,4.10
2018-09-25T04:31:37.370Z,4.10
2018-09-25T04:33:46.008Z,4.10
2018-09-25T04:35:54.660Z,4.10
2018-09-25T04:38:04.930Z,4.10
2018-09-25T04:40:13.754Z,4.00
2018-09-25T04:42:22.567Z,4.20
2018-09-25T04:44:31.278Z,4.00
2018-09-25T04:46:40.139Z,4.00
2018-09-25T04:48:48.962Z,4.00
2018-09-25T04:50:57.859Z,4.00
2018-09-25T04:53:06.898Z,4.00
2018-09-25T04:55:15.561Z,3.90
2018-09-25T04:57:24.228Z,3.90
2018-09-25T04:59:34.776Z,3.90
2018-09-25T05:01:43.494Z,3.90
2018-09-25T05:03:52.160Z,3.90
2018-09-25T05:06:00.925Z,3.90
2018-09-25T05:08:09.639Z,3.90
2018-09-25T05:10:18.363Z,3.90
2018-09-25T05:12:27.071Z,3.90
2018-09-25T05:14:36.006Z,3.80
2018-09-25T05:16:44.813Z,3.80
2018-09-25T05:18:53.514Z,3.80
2018-09-25T05:21:02.358Z,3.80
2018-09-25T05:23:11.292Z,3.80
2018-09-25T05:25:20.103Z,3.80
2018-09-25T05:27:29.096Z,3.80
2018-09-25T05:29:37.949Z,3.80
2018-09-25T05:31:46.701Z,3.80
2018-09-25T05:33:55.354Z,3.80
2018-09-25T05:36:05.479Z,3.80
2018-09-25T05:38:14.320Z,3.80
2018-09-25T05:40:22.991Z,3.80
2018-09-25T05:42:31.716Z,3.80
2018-09-25T05:44:40.576Z,3.80
2018-09-25T05:46:49.356Z,3.90
2018-09-25T05:48:58.338Z,3.90
2018-09-25T05:51:07.128Z,4.00
2018-09-25T05:53:15.843Z,4.00
2018-09-25T05:55:24.776Z,4.00
2018-09-25T05:57:35.369Z,4.10
2018-09-25T05:59:44.215Z,4.10
2018-09-25T06:01:53.068Z,4.20
2018-09-25T06:04:01.877Z,4.20
2018-09-25T06:06:10.643Z,4.20
2018-09-25T06:08:19.450Z,4.30
2018-09-25T06:10:28.252Z,4.40
2018-09-25T06:12:36.955Z,4.40
2018-09-25T06:14:45.705Z,4.50
2018-09-25T06:16:54.452Z,4.50
2018-09-25T06:19:03.707Z,4.60
2018-09-25T06:21:12.533Z,4.60
2018-09-25T06:23:21.320Z,4.70
2018-09-25T06:25:30.276Z,4.80
2018-09-25T06:27:39.194Z,4.90
2018-09-25T06:29:48.143Z,4.90
2018-09-25T06:31:57.248Z,5.00
2018-09-25T06:34:05.983Z,5.10
2018-09-25T06:36:14.748Z,5.20
2018-09-25T06:38:23.607Z,5.20
2018-09-25T06:40:32.386Z,5.30
2018-09-25T06:42:41.331Z,5.40
2018-09-25T06:44:50.203Z,5.50
2018-09-25T06:46:58.897Z,5.60
2018-09-25T06:49:07.628Z,5.70
2018-09-25T06:51:16.287Z,5.80
2018-09-25T06:53:25.075Z,5.90
2018-09-25T06:55:35.537Z,6.00
2018-09-25T06:57:44.236Z,6.10
2018-09-25T06:59:52.980Z,6.20
2018-09-25T07:02:02.149Z,6.30
2018-09-25T07:04:10.896Z,6.50
2018-09-25T07:06:19.733Z,6.60
2018-09-25T07:08:28.616Z,6.70
2018-09-25T07:10:37.384Z,6.90
2018-09-25T07:12:46.185Z,7.00
2018-09-25T07:14:54.993Z,7.10
2018-09-25T07:17:05.202Z,7.30
2018-09-25T07:19:14.267Z,7.50
2018-09-25T07:21:23.027Z,7.60
2018-09-25T07:23:31.782Z,7.80
2018-09-25T07:25:40.861Z,7.90
2018-09-25T07:27:49.694Z,8.10
2018-09-25T07:29:58.494Z,8.30
2018-09-25T07:32:07.335Z,8.40
2018-09-25T07:34:16.045Z,8.50
2018-09-25T07:36:24.954Z,8.60
2018-09-25T07:38:35.803Z,8.80
2018-09-25T07:40:44.543Z,8.90
2018-09-25T07:42:53.220Z,9.00
2018-09-25T07:45:02.045Z,9.20
2018-09-25T07:47:10.867Z,9.40
2018-09-25T07:49:19.544Z,9.50
2018-09-25T07:51:28.335Z,9.80
2018-09-25T07:53:37.116Z,10.00
2018-09-25T07:55:45.920Z,10.10
2018-09-25T07:57:54.729Z,10.20
2018-09-25T08:00:04.808Z,10.20
2018-09-25T08:02:13.568Z,10.20
2018-09-25T08:04:22.433Z,10.40
2018-09-25T08:06:31.290Z,10.60
2018-09-25T08:08:40.045Z,10.80
2018-09-25T08:10:48.804Z,10.90
2018-09-25T08:12:57.604Z,11.00
2018-09-25T08:15:06.485Z,11.10
2018-09-25T08:17:15.342Z,11.20
2018-09-25T08:19:24.412Z,11.20
2018-09-25T08:21:35.203Z,11.00
2018-09-25T08:23:43.953Z,11.10
2018-09-25T08:25:52.801Z,11.10
2018-09-25T08:28:01.538Z,11.20
2018-09-25T08:30:10.891Z,11.30
2018-09-25T08:32:19.533Z,11.50
2018-09-25T08:34:28.657Z,11.70
2018-09-25T08:36:37.391Z,11.70
2018-09-25T08:38:46.211Z,11.80
2018-09-25T08:40:55.244Z,12.00
2018-09-25T08:43:05.361Z,12.10
2018-09-25T08:45:14.134Z,12.10
2018-09-25T08:47:22.956Z,12.10
2018-09-25T08:49:31.692Z,12.10
2018-09-25T08:51:40.535Z,12.10
2018-09-25T08:53:49.335Z,12.30
2018-09-25T08:55:58.221Z,12.30
2018-09-25T08:58:07.067Z,12.40
2018-09-25T09:00:16.104Z,12.40
2018-09-25T09:02:24.811Z,12.50
2018-09-25T09:04:35.165Z,12.50
2018-09-25T09:06:43.948Z,12.60
2018-09-25T09:08:52.751Z,12.80
2018-09-25T09:11:01.394Z,13.00
2018-09-25T09:13:10.228Z,12.90
2018-09-25T09:15:19.005Z,12.80
2018-09-25T09:17:28.269Z,12.60
2018-09-25T09:19:36.982Z,12.40
2018-09-25T09:21:45.788Z,12.20
2018-09-25T09:23:54.716Z,12.50
2018-09-25T09:26:04.919Z,12.50
2018-09-25T09:28:13.860Z,12.50
2018-09-25T09:30:22.683Z,12.60
2018-09-25T09:32:31.577Z,12.80
2018-09-25T09:34:40.251Z,13.00
2018-09-25T09:36:49.076Z,13.20
2018-09-25T09:38:57.847Z,13.40
2018-09-25T09:41:06.757Z,13.40
2018-09-25T09:43:15.493Z,13.20
2018-09-25T09:45:24.199Z,13.30
2018-09-25T09:47:34.277Z,13.50
2018-09-25T09:49:42.956Z,13.40
2018-09-25T09:51:51.716Z,13.40
2018-09-25T09:54:00.624Z,13.70
2018-09-25T09:56:09.336Z,13.90
2018-09-25T09:58:18.176Z,14.20
2018-09-25T10:00:27.120Z,14.30
2018-09-25T10:02:35.883Z,14.20
2018-09-25T10:04:44.635Z,14.10
2018-09-25T10:06:53.484Z,14.30
2018-09-25T10:09:02.096Z,14.50
2018-09-25T10:11:11.118Z,14.70
2018-09-25T10:13:19.818Z,14.80
2018-09-25T10:15:28.596Z,14.60
2018-09-25T10:17:37.325Z,14.10
2018-09-25T10:19:46.076Z,14.00
2018-09-25T10:21:54.760Z,14.20
2018-09-25T10:24:05.220Z,14.60
2018-09-25T10:26:13.982Z,14.60
2018-09-25T10:28:23.184Z,14.50
2018-09-25T10:30:31.927Z,14.30
2018-09-25T10:32:40.756Z,14.40
2018-09-25T10:34:49.652Z,14.50
2018-09-25T10:36:58.397Z,14.60
2018-09-25T10:39:07.193Z,14.80
2018-09-25T10:41:16.328Z,14.80
2018-09-25T10:43:24.903Z,14.60
2018-09-25T10:45:34.330Z,14.60
2018-09-25T10:47:43.232Z,14.50
2018-09-25T10:49:52.039Z,14.70
2018-09-25T10:52:00.757Z,14.90
2018-09-25T10:54:09.524Z,15.00
2018-09-25T10:56:18.375Z,15.00
2018-09-25T10:58:26.888Z,14.80
2018-09-25T11:00:35.564Z,14.40
2018-09-25T11:02:44.242Z,14.80
2018-09-25T11:04:52.862Z,15.00
2018-09-25T11:07:01.992Z,15.30
2018-09-25T11:09:13.793Z,15.40
2018-09-25T11:11:22.595Z,15.30
2018-09-25T11:13:31.470Z,15.40
2018-09-25T11:15:40.273Z,15.40
2018-09-25T11:17:48.941Z,15.50
2018-09-25T11:19:58.592Z,15.80
2018-09-25T11:22:07.421Z,15.80
2018-09-25T11:24:16.097Z,15.50
2018-09-25T11:26:24.767Z,15.40
2018-09-25T11:28:35.296Z,15.50
2018-09-25T11:30:43.936Z,15.40
2018-09-25T11:32:52.524Z,15.40
2018-09-25T11:35:01.181Z,15.40
2018-09-25T11:37:10.016Z,15.50
2018-09-25T11:39:18.744Z,15.50
2018-09-25T11:41:27.702Z,15.30
2018-09-25T11:43:36.436Z,15.20
2018-09-25T11:45:45.113Z,15.00
2018-09-25T11:47:53.952Z,15.00
2018-09-25T11:50:04.588Z,15.10
2018-09-25T11:52:13.508Z,15.30
2018-09-25T11:54:22.276Z,15.70
2018-09-25T11:56:30.943Z,16.00
2018-09-25T11:58:40.179Z,16.00
2018-09-25T12:00:48.788Z,16.00
2018-09-25T12:02:57.436Z,16.30
2018-09-25T12:05:15.166Z,16.60
2018-09-25T12:07:24.016Z,16.80
2018-09-25T12:09:34.437Z,17.00
2018-09-25T12:11:43.279Z,16.90
2018-09-25T12:13:52.201Z,16.70
2018-09-25T12:16:01.064Z,16.80
2018-09-25T12:18:09.753Z,17.00
2018-09-25T12:20:18.527Z,17.20
2018-09-25T12:22:27.384Z,17.30
2018-09-25T12:24:36.493Z,17.20
2018-09-25T12:26:45.355Z,17.20
2018-09-25T12:28:54.028Z,17.10
2018-09-25T12:31:04.179Z,17.00
2018-09-25T12:33:13.101Z,16.90
2018-09-25T12:35:21.954Z,17.10
2018-09-25T12:37:30.853Z,16.80
2018-09-25T12:39:39.565Z,16.80
2018-09-25T12:41:48.233Z,16.80
2018-09-25T12:43:57.032Z,16.60
2018-09-25T12:46:05.804Z,16.00
2018-09-25T12:48:14.688Z,15.70
2018-09-25T12:50:23.427Z,15.70
2018-09-25T12:52:32.202Z,16.00
2018-09-25T12:54:41.157Z,16.30
2018-09-25T12:56:49.866Z,16.60
2018-09-25T12:58:58.456Z,16.80
2018-09-25T13:01:07.344Z,17.00
2018-09-25T13:03:15.938Z,17.20
2018-09-25T13:05:24.745Z,17.20
2018-09-25T13:07:34.862Z,17.50
2018-09-25T13:09:43.593Z,17.70
2018-09-25T13:11:52.290Z,17.90
2018-09-25T13:14:00.957Z,18.00
2018-09-25T13:16:10.012Z,18.00
2018-09-25T13:18:18.699Z,17.70
2018-09-25T13:20:27.620Z,17.90
2018-09-25T13:22:36.476Z,18.00
2018-09-25T13:24:45.298Z,18.30
2018-09-25T13:26:53.979Z,18.30
2018-09-25T13:29:04.232Z,18.30
2018-09-25T13:31:13.178Z,18.30
2018-09-25T13:33:22.503Z,17.80
2018-09-25T13:35:31.775Z,17.80
2018-09-25T13:37:40.837Z,18.10
2018-09-25T13:39:49.605Z,18.40
2018-09-25T13:41:58.361Z,18.80
2018-09-25T13:44:07.080Z,18.90
2018-09-25T13:46:15.757Z,19.00
2018-09-25T13:48:24.710Z,19.10
2018-09-25T13:50:34.919Z,19.20
2018-09-25T13:52:43.684Z,19.20
2018-09-25T13:54:52.574Z,19.00
2018-09-25T13:57:01.252Z,18.60
2018-09-25T13:59:10.058Z,18.40
2018-09-25T14:01:18.974Z,18.10
2018-09-25T14:03:28.638Z,17.90
2018-09-25T14:05:37.375Z,17.90
2018-09-25T14:07:46.198Z,17.70
2018-09-25T14:09:55.001Z,17.20
2018-09-25T14:12:05.400Z,17.10
2018-09-25T14:14:14.924Z,17.00
2018-09-25T14:16:23.764Z,17.30
2018-09-25T14:18:33.958Z,17.30
2018-09-25T14:20:42.634Z,17.20
2018-09-25T14:22:51.399Z,17.30
2018-09-25T14:25:00.172Z,17.20
2018-09-25T14:27:08.787Z,17.20
2018-09-25T14:29:17.528Z,17.40
2018-09-25T14:31:28.727Z,17.60
2018-09-25T14:33:37.523Z,17.60
2018-09-25T14:35:46.433Z,17.60
2018-09-25T14:37:55.256Z,17.70
2018-09-25T14:40:05.216Z,18.20
2018-09-25T14:42:13.931Z,18.40
2018-09-25T14:44:22.699Z,18.80
2018-09-25T14:46:31.402Z,19.00
2018-09-25T14:48:40.188Z,19.20
2018-09-25T14:50:48.876Z,19.40
2018-09-25T14:52:57.663Z,19.60
2018-09-25T14:55:06.473Z,19.70
2018-09-25T14:57:15.268Z,20.00
2018-09-25T14:59:23.996Z,20.00
2018-09-25T15:01:34.374Z,20.00
2018-09-25T15:03:43.436Z,20.40
2018-09-25T15:05:52.253Z,20.40
2018-09-25T15:08:01.093Z,20.80
2018-09-25T15:10:09.839Z,20.80
2018-09-25T15:12:18.520Z,20.50
2018-09-25T15:14:27.327Z,20.00
2018-09-25T15:16:36.197Z,20.00
2018-09-25T15:18:45.017Z,20.20
2018-09-25T15:20:53.861Z,20.70
2018-09-25T15:23:04.267Z,21.20
2018-09-25T15:25:13.255Z,21.40
2018-09-25T15:27:22.134Z,21.40
2018-09-25T15:29:30.786Z,21.50
2018-09-25T15:31:39.406Z,21.30
2018-09-25T15:33:48.060Z,21.60
2018-09-25T15:35:57.897Z,21.70
2018-09-25T15:38:06.687Z,21.70
2018-09-25T15:40:15.539Z,21.90
2018-09-25T15:42:24.328Z,21.90
2018-09-25T15:44:34.959Z,21.50
2018-09-25T15:46:43.797Z,21.60
2018-09-25T15:48:52.693Z,21.60
2018-09-25T15:51:01.440Z,21.20
2018-09-25T15:53:10.380Z,21.00
2018-09-25T15:55:19.247Z,20.60
2018-09-25T15:57:27.948Z,20.80
2018-09-25T15:59:36.638Z,20.30
2018-09-25T16:01:45.450Z,20.00
2018-09-25T16:03:54.267Z,19.70
2018-09-25T16:06:04.137Z,19.70
2018-09-25T16:08:13.200Z,19.40
2018-09-25T16:10:22.020Z,19.00
2018-09-25T16:12:30.800Z,18.40
2018-09-25T16:14:39.572Z,17.80
2018-09-25T16:16:48.318Z,17.20
2018-09-25T16:18:57.724Z,16.90
2018-09-25T16:21:06.806Z,16.70
2018-09-25T16:23:15.664Z,16.60
2018-09-25T16:25:24.417Z,16.30
2018-09-25T16:27:34.412Z,16.30
2018-09-25T16:29:43.240Z,16.10
2018-09-25T16:31:51.988Z,16.00
2018-09-25T16:34:00.788Z,16.00
2018-09-25T16:36:09.617Z,15.80
2018-09-25T16:38:18.491Z,15.70
2018-09-25T16:40:27.277Z,15.70
2018-09-25T16:42:36.022Z,15.70
2018-09-25T16:44:44.883Z,15.60
2018-09-25T16:46:53.631Z,15.40
2018-09-25T16:49:02.459Z,15.30
2018-09-25T16:51:11.173Z,15.20
2018-09-25T16:53:19.869Z,15.00
2018-09-25T16:55:28.626Z,14.90
2018-09-25T16:57:37.607Z,14.80
2018-09-25T16:59:46.488Z,14.80
2018-09-25T17:01:55.411Z,14.80
2018-09-25T17:04:05.744Z,14.70
2018-09-25T17:06:14.481Z,14.50
2018-09-25T17:08:23.260Z,14.40
2018-09-25T17:10:32.116Z,14.20
2018-09-25T17:12:40.923Z,13.90
2018-09-25T17:14:49.651Z,13.80
2018-09-25T17:16:58.316Z,13.60
2018-09-25T17:19:07.051Z,13.40
2018-09-25T17:21:15.838Z,13.30
2018-09-25T17:23:24.608Z,13.30
2018-09-25T17:25:34.857Z,13.10
2018-09-25T17:27:43.591Z,13.00
2018-09-25T17:29:52.402Z,12.90
2018-09-25T17:32:01.107Z,12.70
2018-09-25T17:34:09.921Z,12.60
2018-09-25T17:36:18.632Z,12.40
2018-09-25T17:38:27.349Z,12.30
2018-09-25T17:40:36.443Z,12.20
2018-09-25T17:42:45.247Z,12.00
2018-09-25T17:44:54.194Z,12.00
2018-09-25T17:47:04.928Z,11.90
2018-09-25T17:49:13.809Z,11.70
2018-09-25T17:51:22.509Z,11.70
2018-09-25T17:53:31.364Z,11.60
2018-09-25T17:55:40.137Z,11.40
2018-09-25T17:57:48.820Z,11.30
2018-09-25T17:59:58.645Z,11.30
2018-09-25T18:02:07.412Z,11.20
2018-09-25T18:04:15.964Z,11.20
2018-09-25T18:06:24.806Z,11.10
2018-09-25T18:08:35.326Z,10.90
2018-09-25T18:10:44.128Z,10.80
2018-09-25T18:12:53.089Z,10.70
2018-09-25T18:15:01.863Z,10.60
2018-09-25T18:17:10.583Z,10.50
2018-09-25T18:19:19.534Z,10.40
2018-09-25T18:21:28.507Z,10.30
2018-09-25T18:23:37.268Z,10.30
2018-09-25T18:25:46.005Z,10.20
2018-09-25T18:27:55.000Z,10.10
2018-09-25T18:30:05.212Z,10.10
2018-09-25T18:32:13.906Z,9.90
2018-09-25T18:34:22.705Z,9.80
2018-09-25T18:36:31.584Z,9.70
2018-09-25T18:38:40.468Z,9.60
2018-09-25T18:40:49.286Z,9.60
2018-09-25T18:42:58.081Z,9.50
2018-09-25T18:45:07.072Z,9.50
2018-09-25T18:47:15.765Z,9.40
2018-09-25T18:49:24.678Z,9.30
2018-09-25T18:51:35.218Z,9.20
2018-09-25T18:53:44.097Z,9.20
2018-09-25T18:55:52.859Z,9.10
2018-09-25T18:58:02.235Z,9.10
2018-09-25T19:00:11.409Z,8.90
2018-09-25T19:02:21.016Z,8.80
2018-09-25T19:04:29.832Z,8.80
2018-09-25T19:06:38.502Z,8.80
2018-09-25T19:08:47.777Z,8.80
2018-09-25T19:10:57.678Z,8.80
2018-09-25T19:13:06.398Z,8.60
2018-09-25T19:15:15.829Z,8.60
2018-09-25T19:17:24.652Z,8.50
2018-09-25T19:19:35.108Z,8.50
2018-09-25T19:21:44.172Z,8.60
2018-09-25T19:23:52.892Z,8.40
2018-09-25T19:26:01.926Z,8.30
2018-09-25T19:28:10.763Z,8.30
2018-09-25T19:30:19.495Z,8.30
2018-09-25T19:32:28.184Z,8.20
2018-09-25T19:34:36.843Z,8.10
2018-09-25T19:36:45.796Z,8.10
2018-09-25T19:38:54.625Z,8.00
2018-09-25T19:41:04.681Z,7.90
2018-09-25T19:43:13.392Z,7.90
2018-09-25T19:45:22.196Z,7.80
2018-09-25T19:47:31.012Z,7.80
2018-09-25T19:49:39.943Z,7.70
2018-09-25T19:51:48.714Z,7.60
2018-09-25T19:53:57.484Z,7.50
2018-09-25T19:56:06.486Z,7.50
2018-09-25T19:58:15.224Z,7.40
2018-09-25T20:00:23.945Z,7.30
2018-09-25T20:02:34.748Z,7.10
2018-09-25T20:04:43.513Z,7.10
2018-09-25T20:06:52.434Z,7.00
2018-09-25T20:09:01.153Z,7.00
2018-09-25T20:11:10.189Z,7.00
2018-09-25T20:13:19.001Z,6.90
2018-09-25T20:15:27.872Z,6.80
2018-09-25T20:17:36.506Z,6.80
2018-09-25T20:19:45.393Z,6.80
2018-09-25T20:21:54.124Z,6.70
2018-09-25T20:24:04.770Z,6.70
2018-09-25T20:26:13.661Z,6.70
2018-09-25T20:28:22.514Z,6.60
2018-09-25T20:30:31.347Z,6.60
2018-09-25T20:32:40.225Z,6.60
2018-09-25T20:34:49.064Z,6.60
2018-09-25T20:36:57.866Z,6.50
2018-09-25T20:39:06.782Z,6.50
2018-09-25T20:41:15.723Z,6.40
2018-09-25T20:43:24.450Z,6.30
2018-09-25T20:45:34.981Z,6.30
2018-09-25T20:47:44.083Z,6.20
2018-09-25T20:49:52.800Z,6.10
2018-09-25T20:52:01.702Z,6.00
2018-09-25T20:54:10.615Z,6.00
2018-09-25T20:56:19.427Z,6.00
2018-09-25T20:58:28.239Z,6.00
2018-09-25T21:00:37.109Z,6.00
2018-09-25T21:02:45.995Z,6.00
2018-09-25T21:04:55.096Z,5.90
2018-09-25T21:07:05.558Z,5.90
2018-09-25T21:09:14.719Z,5.80
2018-09-25T21:11:23.460Z,5.80
2018-09-25T21:13:32.205Z,5.70
2018-09-25T21:15:41.090Z,5.70
2018-09-25T21:17:49.891Z,5.60
2018-09-25T21:19:58.672Z,5.50
2018-09-25T21:22:07.437Z,5.50
2018-09-25T21:24:16.223Z,5.40
2018-09-25T21:26:24.955Z,5.30
2018-09-25T21:28:35.520Z,5.30
2018-09-25T21:30:44.128Z,5.30
2018-09-25T21:32:53.323Z,5.20
2018-09-25T21:35:02.085Z,5.20
2018-09-25T21:37:10.744Z,5.20
2018-09-25T21:39:19.739Z,5.20
2018-09-25T21:41:28.388Z,5.20
2018-09-25T21:43:37.201Z,5.10
2018-09-25T21:45:46.083Z,5.10
2018-09-25T21:47:54.934Z,5.10
2018-09-25T21:50:05.166Z,5.00
2018-09-25T21:52:14.132Z,5.00
2018-09-25T21:54:22.999Z,4.90
2018-09-25T21:56:31.804Z,4.90
2018-09-25T21:58:40.759Z,4.90
2018-09-25T22:00:49.678Z,4.90
2018-09-25T22:02:58.437Z,4.90
2018-09-25T22:05:07.300Z,4.80
2018-09-25T22:07:15.920Z,4.70
2018-09-25T22:09:24.756Z,4.70
2018-09-25T22:11:34.557Z,4.50
2018-09-25T22:13:43.269Z,4.50
2018-09-25T22:15:52.176Z,4.40
2018-09-25T22:18:00.895Z,4.40
2018-09-25T22:20:09.669Z,4.30
2018-09-25T22:22:18.514Z,4.30
2018-09-25T22:24:27.217Z,4.30
2018-09-25T22:26:35.980Z,4.20
2018-09-25T22:28:44.830Z,4.10
2018-09-25T22:30:53.616Z,4.10
2018-09-25T22:33:02.431Z,4.00
2018-09-25T22:35:11.235Z,4.00
2018-09-25T22:37:19.986Z,4.00
2018-09-25T22:39:28.748Z,3.90
2018-09-25T22:41:37.399Z,3.90
2018-09-25T22:43:46.192Z,3.90
2018-09-25T22:45:55.350Z,3.90
2018-09-25T22:48:05.632Z,4.00
2018-09-25T22:50:14.509Z,4.00
2018-09-25T22:52:23.419Z,4.00
2018-09-25T22:54:32.341Z,3.90
2018-09-25T22:56:41.080Z,3.90
2018-09-25T22:58:50.205Z,3.90
2018-09-25T23:00:58.991Z,3.80
2018-09-25T23:03:07.742Z,3.80
2018-09-25T23:05:16.480Z,3.80
2018-09-25T23:07:25.221Z,3.70
2018-09-25T23:09:35.526Z,3.60
2018-09-25T23:11:44.368Z,3.60
2018-09-25T23:13:53.149Z,3.50
2018-09-25T23:16:01.848Z,3.50
2018-09-25T23:18:10.750Z,3.50
2018-09-25T23:20:19.508Z,3.50
2018-09-25T23:22:28.253Z,3.50
2018-09-25T23:24:37.043Z,3.50
2018-09-25T23:26:45.684Z,3.50
2018-09-25T23:28:54.516Z,3.50
2018-09-25T23:31:04.787Z,3.60
2018-09-25T23:33:13.678Z,3.50
2018-09-25T23:35:22.503Z,3.50
2018-09-25T23:37:31.280Z,3.40
2018-09-25T23:39:40.060Z,3.40
2018-09-25T23:41:48.774Z,3.40
2018-09-25T23:43:57.684Z,3.30
2018-09-25T23:46:38.475Z,3.30
2018-09-25T23:48:52.000Z,3.30
2018-09-25T23:51:03.571Z,3.30
2018-09-25T23:53:15.071Z,3.20
2018-09-25T23:55:22.744Z,3.20
2018-09-25T23:57:30.297Z,3.20
2018-09-25T23:59:42.371Z,3.20
